Terminal Aerodrome Forecast
Issued by NWS New Orleans/Baton Rouge, LA

Home | Current Version | Previous Version | Text Only | Print | Product List | Glossary On
Versions: 1 2 3 4 5 6 7 8 9 10 11 12 13 14
000
FTUS44 KLIX 021400 AAA
TAFBTR
TAF AMD
KBTR 021437Z 0215/0312 16006KT P6SM VCSH BKN010 OVC021
     FM021800 19008KT P6SM VCSH SCT025 BKN035
      TEMPO 0218/0222 VRB15KT 2SM TSRA BKN020CB
     FM030100 17010KT P6SM VCSH SCT020 BKN090
     FM030600 19009KT P6SM VCSH SCT020 BKN100
      TEMPO 0308/0312 VRB15G25KT 1SM TSRA BR BKN015CB OVC030=

USA.gov is the U.S. government's official web portal to all federal, state and local government web resources and services.